createdAt,value
2022-10-11T00:04:04.396Z,9.30
2022-10-11T00:10:06.335Z,9.97
2022-10-11T00:16:11.539Z,9.65
2022-10-11T00:22:13.053Z,10.30
2022-10-11T00:28:14.592Z,13.38
2022-10-11T00:34:18.038Z,13.27
2022-10-11T00:40:20.350Z,11.67
2022-10-11T00:46:26.031Z,8.75
2022-10-11T00:52:36.102Z,8.23
2022-10-11T00:58:38.402Z,6.70
2022-10-11T01:04:40.359Z,11.00
2022-10-11T01:10:41.860Z,5.30
2022-10-11T01:16:52.219Z,8.07
2022-10-11T01:23:02.903Z,7.37
2022-10-11T01:29:15.471Z,7.22
2022-10-11T01:35:24.737Z,8.30
2022-10-11T01:41:34.879Z,10.70
2022-10-11T01:47:36.742Z,12.13
2022-10-11T01:53:55.277Z,8.77
2022-10-11T02:00:18.106Z,5.55
2022-10-11T02:06:23.063Z,11.77
2022-10-11T02:12:28.102Z,7.70
2022-10-11T02:18:33.082Z,7.75
2022-10-11T02:24:36.129Z,8.90
2022-10-11T02:30:38.451Z,6.88
2022-10-11T02:36:48.623Z,6.72
2022-10-11T02:42:53.604Z,11.07
2022-10-11T02:48:55.198Z,13.35
2022-10-11T02:54:56.902Z,9.47
2022-10-11T03:00:58.483Z,10.63
2022-10-11T03:07:00.079Z,7.78
2022-10-11T03:13:02.052Z,9.00
2022-10-11T03:19:04.682Z,10.90
2022-10-11T03:25:06.335Z,9.60
2022-10-11T03:31:08.022Z,8.27
2022-10-11T03:37:09.613Z,9.00
2022-10-11T03:43:11.660Z,6.67
2022-10-11T03:49:13.281Z,9.55
2022-10-11T03:55:14.910Z,14.83
2022-10-11T04:01:16.616Z,9.50
2022-10-11T04:07:18.607Z,10.60
2022-10-11T04:13:20.277Z,9.10
2022-10-11T04:19:21.860Z,9.30
2022-10-11T04:25:23.443Z,12.83
2022-10-11T04:31:25.047Z,8.38
2022-10-11T04:37:26.606Z,11.85
2022-10-11T04:43:28.157Z,8.57
2022-10-11T04:49:29.777Z,14.05
2022-10-11T04:55:31.364Z,8.23
2022-10-11T05:01:33.074Z,13.40
2022-10-11T05:07:34.702Z,12.80
2022-10-11T05:13:36.329Z,13.87
2022-10-11T05:19:38.071Z,9.15
2022-10-11T05:25:39.943Z,9.20
2022-10-11T05:31:41.681Z,8.38
2022-10-11T05:37:43.244Z,12.63
2022-10-11T05:43:45.813Z,24.67
2022-10-11T05:49:47.375Z,15.23
2022-10-11T05:55:48.949Z,9.70
2022-10-11T06:01:50.600Z,9.25
2022-10-11T06:07:52.233Z,13.63
2022-10-11T06:13:54.454Z,10.67
2022-10-11T06:19:56.027Z,12.23
2022-10-11T06:25:58.398Z,16.83
2022-10-11T06:32:00.033Z,15.85
2022-10-11T06:38:01.769Z,14.23
2022-10-11T06:44:03.448Z,11.93
2022-10-11T06:50:06.247Z,15.02
2022-10-11T06:56:09.633Z,11.43
2022-10-11T07:02:11.522Z,14.52
2022-10-11T07:08:13.105Z,12.15
2022-10-11T07:14:14.734Z,11.70
2022-10-11T07:20:16.404Z,15.73
2022-10-11T07:26:19.291Z,12.00
2022-10-11T07:32:20.941Z,10.45
2022-10-11T07:38:22.546Z,11.50
2022-10-11T07:44:24.254Z,11.63
2022-10-11T07:50:26.532Z,13.68
2022-10-11T07:56:28.882Z,9.83
2022-10-11T08:02:30.532Z,10.85
2022-10-11T08:08:32.394Z,10.25
2022-10-11T08:14:34.031Z,12.43
2022-10-11T08:20:38.243Z,11.35
2022-10-11T08:26:40.011Z,11.77
2022-10-11T08:32:41.601Z,18.52
2022-10-11T08:38:43.220Z,9.30
2022-10-11T08:45:09.950Z,11.20
2022-10-11T08:51:26.830Z,13.18
2022-10-11T08:57:29.798Z,8.67
2022-10-11T09:03:36.650Z,9.45
2022-10-11T09:09:50.698Z,8.80
2022-10-11T09:15:57.158Z,9.03
2022-10-11T09:22:07.778Z,14.35
2022-10-11T09:28:20.584Z,12.57
2022-10-11T09:34:24.601Z,9.77
2022-10-11T09:40:43.182Z,11.18
2022-10-11T09:46:45.491Z,10.87
2022-10-11T09:52:51.275Z,9.88
2022-10-11T09:59:11.723Z,9.60
2022-10-11T10:05:14.849Z,10.07
2022-10-11T10:11:17.268Z,8.65
2022-10-11T10:17:18.862Z,9.60
2022-10-11T10:23:22.849Z,14.15
2022-10-11T10:29:24.356Z,6.40
2022-10-11T10:35:41.202Z,9.02
2022-10-11T10:41:42.776Z,7.22
2022-10-11T10:48:02.748Z,8.67
2022-10-11T10:54:22.551Z,5.65
2022-10-11T11:00:24.595Z,8.87
2022-10-11T11:06:49.167Z,7.43
2022-10-11T11:12:59.983Z,10.60
2022-10-11T11:19:20.342Z,8.70
2022-10-11T11:25:33.865Z,7.53
2022-10-11T11:31:54.019Z,8.40
2022-10-11T11:38:03.868Z,11.27
2022-10-11T11:44:15.995Z,6.57
2022-10-11T11:50:22.538Z,8.33
2022-10-11T11:56:33.595Z,9.73
2022-10-11T12:02:40.495Z,3.93
2022-10-11T12:08:43.543Z,8.02
2022-10-11T12:14:45.211Z,8.02
2022-10-11T12:20:46.755Z,6.70
2022-10-11T12:27:01.209Z,7.63
2022-10-11T12:33:05.372Z,8.13
2022-10-11T12:39:19.151Z,8.35
2022-10-11T12:45:20.638Z,7.20
2022-10-11T12:51:32.606Z,7.17
2022-10-11T12:57:46.437Z,6.75
2022-10-11T13:03:58.951Z,12.57
2022-10-11T13:10:00.563Z,10.02
2022-10-11T13:16:06.871Z,7.88
2022-10-11T13:22:19.086Z,11.10
2022-10-11T13:28:21.354Z,6.40
2022-10-11T13:34:23.613Z,8.87
2022-10-11T13:40:25.995Z,11.75
2022-10-11T13:46:28.430Z,7.30
2022-10-11T13:52:29.927Z,5.97
2022-10-11T13:58:44.798Z,7.53
2022-10-11T14:04:47.227Z,6.20
2022-10-11T14:10:54.160Z,6.50
2022-10-11T14:16:58.983Z,6.15
2022-10-11T14:23:00.502Z,11.77
2022-10-11T14:29:06.586Z,11.00
2022-10-11T14:35:18.908Z,8.57
2022-10-11T14:41:20.478Z,6.28
2022-10-11T14:47:21.999Z,6.95
2022-10-11T14:53:23.830Z,7.50
2022-10-11T14:59:27.407Z,9.38
2022-10-11T15:05:34.139Z,4.83
2022-10-11T15:11:36.782Z,6.72
2022-10-11T15:17:38.271Z,6.57
2022-10-11T15:23:39.871Z,8.03
2022-10-11T15:29:41.396Z,11.15
2022-10-11T15:35:42.980Z,5.77
2022-10-11T15:41:44.547Z,9.68
2022-10-11T15:47:46.643Z,8.65
2022-10-11T15:53:48.284Z,8.67
2022-10-11T15:59:49.770Z,10.20
2022-10-11T16:05:51.827Z,8.27
2022-10-11T16:11:53.665Z,6.22
2022-10-11T16:17:55.192Z,10.43
2022-10-11T16:23:56.713Z,7.83
2022-10-11T16:29:58.442Z,9.50
2022-10-11T16:36:19.918Z,7.60
2022-10-11T16:42:21.488Z,6.75
2022-10-11T16:48:23.000Z,8.80
2022-10-11T16:54:25.322Z,8.63
2022-10-11T17:00:26.919Z,8.55
2022-10-11T17:06:28.487Z,7.37
2022-10-11T17:12:31.838Z,13.13
2022-10-11T17:18:33.367Z,12.63
2022-10-11T17:24:35.932Z,10.93
2022-10-11T17:30:39.130Z,10.95
2022-10-11T17:36:41.386Z,11.10
2022-10-11T17:42:42.980Z,13.80
2022-10-11T17:48:45.436Z,12.90
2022-10-11T17:54:46.971Z,12.70
2022-10-11T18:00:48.575Z,21.80
2022-10-11T18:06:50.139Z,18.43
2022-10-11T18:12:54.660Z,21.35
2022-10-11T18:18:57.424Z,18.42
2022-10-11T18:24:59.174Z,17.83
2022-10-11T18:31:00.678Z,16.15
2022-10-11T18:37:02.335Z,18.23
2022-10-11T18:43:04.025Z,19.70
2022-10-11T18:49:05.594Z,18.92
2022-10-11T18:55:07.308Z,19.60
2022-10-11T19:01:10.345Z,18.48
2022-10-11T19:07:12.737Z,17.03
2022-10-11T19:13:14.279Z,16.40
2022-10-11T19:19:16.530Z,19.63
2022-10-11T19:25:18.040Z,18.83
2022-10-11T19:31:19.755Z,19.55
2022-10-11T19:37:21.492Z,17.97
2022-10-11T19:43:23.158Z,15.60
2022-10-11T19:49:25.825Z,20.27
2022-10-11T19:55:27.465Z,18.80
2022-10-11T20:01:30.279Z,20.30
2022-10-11T20:07:32.141Z,21.60
2022-10-11T20:13:35.174Z,19.17
2022-10-11T20:19:36.929Z,18.27
2022-10-11T20:25:38.463Z,17.93
2022-10-11T20:31:41.724Z,19.95
2022-10-11T20:37:43.305Z,21.90
2022-10-11T20:43:45.587Z,19.65
2022-10-11T20:49:47.123Z,19.90
2022-10-11T20:55:48.992Z,19.00
2022-10-11T21:01:50.580Z,18.80
2022-10-11T21:07:53.115Z,17.73
2022-10-11T21:13:58.717Z,19.60
2022-10-11T21:20:03.491Z,18.73
2022-10-11T21:26:06.420Z,18.80
2022-10-11T21:32:12.009Z,19.95
2022-10-11T21:38:15.736Z,16.73
2022-10-11T21:44:17.548Z,20.60
2022-10-11T21:50:19.089Z,18.40
2022-10-11T21:56:20.674Z,19.07
2022-10-11T22:02:22.191Z,20.67
2022-10-11T22:08:24.184Z,20.93
2022-10-11T22:14:25.775Z,19.63
2022-10-11T22:20:27.461Z,23.98
2022-10-11T22:26:30.779Z,20.83
2022-10-11T22:32:32.478Z,17.98
2022-10-11T22:38:35.955Z,18.23
2022-10-11T22:44:37.455Z,21.05
2022-10-11T22:50:38.982Z,17.58
2022-10-11T22:56:40.519Z,17.60
2022-10-11T23:02:42.068Z,19.63
2022-10-11T23:08:44.371Z,19.77
2022-10-11T23:14:45.880Z,18.40
2022-10-11T23:20:47.528Z,19.20
2022-10-11T23:26:49.048Z,20.53
2022-10-11T23:32:50.639Z,17.48
2022-10-11T23:38:53.273Z,22.83
2022-10-11T23:44:54.777Z,16.25
2022-10-11T23:50:56.263Z,19.38
2022-10-11T23:56:57.754Z,15.23
